Latest Coastal Weather Observations for Hillarys Point Boat Harbour

IDW60701

Issued at 6:52 pm WST Wednesday 29 June 2016 (issued every 10 minutes, with the page automatically refreshed every 10 minutes)

About coastal observations | Map of coastal stations | Coastal observations for WA | Marine services | Other Formats
Station Details ID: 009265 Name: HILLARYS BOAT HARBOUR NTC AWS Lat: -31.83 Lon: 115.74 Height: 0.0 m
Data from the previous 72 hours. | See also: Recent months for locations in Western Australia
Date/Time
WST
Temp
°C
Wind Pressure Rain since
9am
mm
Weather Cloud Vis
km
Sea
Height
m
Swell
Dir  Spd
kts
Gust
kts
hPa Trend Height
m
Period
s
Dir
29/06:30pm 15.5 SSE 1 4 1021.5 - - - - - - - - -
29/06:00pm 15.4 ESE 1 5 1021.0 - - - - - - - - -
29/05:30pm 15.9 S 4 8 1020.6 - - - - - - - - -
29/05:00pm 16.1 SSW 5 13 1020.2 - - - - - - - - -
29/04:30pm 17.4 SSW 6 13 1019.8 - - - - - - - - -
29/04:00pm 17.8 SSW 7 11 1019.5 - - - - - - - - -
29/03:30pm 17.6 SSW 4 9 1019.2 - - - - - - - - -
29/03:00pm 17.5 SSW 4 9 1018.8 - - - - - - - - -
29/02:30pm 17.1 SSW 6 11 1018.5 - - - - - - - - -
29/02:00pm 17.7 SW 8 13 1018.3 - - - - - - - - -
29/01:30pm 17.8 SW 8 12 1018.2 - - - - - - - - -
29/01:00pm 17.8 SW 6 10 1018.2 - - - - - - - - -
29/12:30pm 17.8 SSW 6 11 1018.5 - - - - - - - - -
29/12:00pm 18.0 SW 5 10 1018.5 - - - - - - - - -
29/11:30am 17.8 SSW 6 11 1018.6 - - - - - - - - -
29/11:00am 17.5 SSW 6 11 1018.5 - - - - - - - - -
29/10:30am 17.7 SSW 6 12 1018.4 - - - - - - - - -
29/10:00am 17.3 SSW 3 6 1018.3 - - - - - - - - -
29/09:30am 16.6 SSW 2 3 1018.0 - - - - - - - - -
29/09:00am 15.8 WSW 11 19 1017.8 - - - - - - - - -
29/08:30am 16.4 SW 11 19 1017.3 - - - - - - - - -
29/08:00am 17.7 WSW 12 15 1016.7 - - - - - - - - -
29/07:30am 17.6 WSW 11 17 1016.1 - - - - - - - - -
29/07:00am 17.6 WSW 9 14 1015.7 - - - - - - - - -
29/06:30am 17.0 SW 5 11 1015.3 - - - - - - - - -
29/06:00am 17.1 WSW 10 16 1014.8 - - - - - - - - -
29/05:30am 17.5 WSW 9 13 1014.4 - - - - - - - - -
29/05:00am 17.5 WSW 9 12 1014.2 - - - - - - - - -
29/04:30am 17.3 WSW 10 13 1014.1 - - - - - - - - -
29/04:00am 17.7 WSW 12 16 1013.8 - - - - - - - - -
29/03:30am 17.2 SW 7 12 1013.7 - - - - - - - - -
29/03:00am 17.0 WSW 9 14 1013.6 - - - - - - - - -
29/02:30am 17.6 WSW 9 13 1013.5 - - - - - - - - -
29/02:00am 17.6 WSW 7 10 1013.4 - - - - - - - - -
29/01:30am 17.7 WSW 9 12 1013.2 - - - - - - - - -
29/01:00am 17.6 WSW 7 11 1013.2 - - - - - - - - -
29/12:30am 17.7 WSW 8 11 1013.2 - - - - - - - - -
29/12:00am 17.9 WSW 8 10 1013.2 - - - - - - - - -
 
Date/Time
WST
Temp
°C
Wind Pressure Rain since
9am
mm
Weather Cloud Vis
km
Sea
Height
m
Swell
Dir  Spd
kts
Gust
kts
hPa Trend Height
m
Period
s
Dir
28/11:30pm 17.9 WSW 8 12 1013.2 - - - - - - - - -
28/11:00pm 17.9 W 7 11 1013.2 - - - - - - - - -
28/10:30pm 17.9 WSW 7 10 1012.6 - - - - - - - - -
28/10:00pm 17.9 WSW 7 12 1012.9 - - - - - - - - -
28/09:30pm 17.9 WSW 7 10 1012.6 - - - - - - - - -
28/09:00pm 18.1 WSW 7 11 1012.8 - - - - - - - - -
28/08:30pm 18.0 WSW 7 11 1012.8 - - - - - - - - -
28/08:00pm 17.9 W 5 7 1012.6 - - - - - - - - -
28/07:30pm 18.1 W 6 9 1012.6 - - - - - - - - -
28/07:00pm 17.6 W 4 6 1012.3 - - - - - - - - -
28/06:30pm 18.0 W 7 9 1012.2 - - - - - - - - -
28/06:00pm 18.1 W 9 14 1011.8 - - - - - - - - -
28/05:30pm 17.8 W 6 9 1011.6 - - - - - - - - -
28/05:00pm 17.7 W 6 10 1011.4 - - - - - - - - -
28/04:30pm 17.4 W 9 15 1011.2 - - - - - - - - -
28/04:00pm 17.9 W 5 8 1011.0 - - - - - - - - -
28/03:30pm 17.6 W 4 7 1011.1 - - - - - - - - -
28/03:00pm 17.1 WSW 8 10 1011.0 - - - - - - - - -
28/02:30pm 18.0 WNW 6 10 1010.7 - - - - - - - - -
28/02:00pm 17.6 WNW 8 13 1010.6 - - - - - - - - -
28/01:30pm 17.2 NW 6 9 1011.2 - - - - - - - - -
28/01:00pm 15.3 WNW 11 20 1011.3 - - - - - - - - -
28/12:30pm 16.1 N 10 20 1010.9 - - - - - - - - -
28/12:00pm 16.7 N 8 14 1011.5 - - - - - - - - -
28/11:30am 17.4 N 10 18 1011.9 - - - - - - - - -
28/11:00am 16.1 N 6 12 1012.2 - - - - - - - - -
28/10:30am 17.2 N 9 15 1012.3 - - - - - - - - -
28/10:00am 16.3 N 10 18 1012.5 - - - - - - - - -
28/09:30am 16.0 N 8 14 1012.5 - - - - - - - - -
28/09:00am 15.1 NNE 8 13 1012.4 - - - - - - - - -
28/08:30am 14.4 N 7 12 1012.6 - - - - - - - - -
28/08:00am 13.7 NNE 6 9 1012.4 - - - - - - - - -
28/07:30am 13.6 NNE 6 11 1012.3 - - - - - - - - -
28/07:00am 13.6 NNE 7 11 1012.2 - - - - - - - - -
28/06:30am 13.3 NNE 6 9 1012.3 - - - - - - - - -
28/06:00am 13.1 NNE 7 12 1012.0 - - - - - - - - -
28/05:30am 13.7 NNE 8 14 1011.8 - - - - - - - - -
28/05:00am 13.1 NNE 8 11 1011.8 - - - - - - - - -
28/04:30am 13.4 NNE 7 11 1011.8 - - - - - - - - -
28/04:00am 12.6 NNE 8 12 1011.9 - - - - - - - - -
28/03:30am 12.8 NNE 8 13 1012.0 - - - - - - - - -
28/03:00am 12.7 NNE 8 11 1012.3 - - - - - - - - -
28/02:30am 12.9 NNE 8 13 1012.6 - - - - - - - - -
28/02:00am 12.4 NNE 7 11 1012.6 - - - - - - - - -
28/01:30am 12.3 NE 6 10 1012.9 - - - - - - - - -
28/01:00am 12.5 NNE 7 11 1013.2 - - - - - - - - -
28/12:30am 12.3 NNE 7 10 1013.5 - - - - - - - - -
28/12:00am 12.6 NNE 6 9 1014.0 - - - - - - - - -
 
Date/Time
WST
Temp
°C
Wind Pressure Rain since
9am
mm
Weather Cloud Vis
km
Sea
Height
m
Swell
Dir  Spd
kts
Gust
kts
hPa Trend Height
m
Period
s
Dir
27/11:30pm 12.7 NNE 5 9 1014.3 - - - - - - - - -
27/11:00pm 12.9 NNE 5 8 1014.4 - - - - - - - - -
27/10:30pm 12.9 NNE 4 6 1014.5 - - - - - - - - -
27/10:00pm 12.7 NE 3 5 1014.6 - - - - - - - - -
27/09:30pm 14.1 NNE 6 12 1014.9 - - - - - - - - -
27/09:00pm 13.8 NNE 4 6 1014.8 - - - - - - - - -
27/08:30pm 13.6 NNE 4 7 1015.2 - - - - - - - - -
27/08:00pm 14.2 NE 3 5 1015.3 - - - - - - - - -
27/07:30pm 14.2 NE 3 4 1015.4 - - - - - - - - -
27/07:00pm 14.5 ENE 3 5 1015.4 - - - - - - - - -
27/06:30pm 14.6 NE 2 3 1015.4 - - - - - - - - -
27/06:00pm 15.1 NE 2 4 1015.2 - - - - - - - - -
27/05:30pm 15.9 NNE 3 5 1015.1 - - - - - - - - -
27/05:00pm 16.6 NNW 4 7 1015.4 - - - - - - - - -
27/04:30pm 16.6 WNW 4 8 1015.4 - - - - - - - - -
27/04:00pm 16.6 NW 4 7 1015.5 - - - - - - - - -
27/03:30pm 16.9 NW 4 9 1015.6 - - - - - - - - -
27/03:00pm 16.7 NNW 5 10 1015.6 - - - - - - - - -
27/02:30pm 16.5 NNW 6 11 1015.7 - - - - - - - - -
27/02:00pm 16.5 NNW 7 11 1016.0 - - - - - - - - -
27/01:30pm 16.8 N 7 14 1016.4 - - - - - - - - -
27/01:00pm 16.5 N 8 15 1016.8 - - - - - - - - -
27/12:30pm 16.2 NNE 9 18 1017.5 - - - - - - - - -
27/12:00pm 16.0 NNE 8 15 1018.1 - - - - - - - - -
27/11:30am 15.5 NNE 8 15 1018.9 - - - - - - - - -
27/11:00am 15.2 N 9 15 1019.6 - - - - - - - - -
27/10:30am 14.7 NNE 7 13 1020.1 - - - - - - - - -
27/10:00am 13.5 NNE 7 13 1020.4 - - - - - - - - -
27/09:30am 12.3 NNE 8 12 1020.4 - - - - - - - - -
27/09:00am 11.4 NNE 8 13 1020.6 - - - - - - - - -
27/08:30am 10.7 N 7 10 1020.6 - - - - - - - - -
27/08:00am 10.3 N 6 12 1020.5 - - - - - - - - -
27/07:30am 9.9 N 4 7 1020.3 - - - - - - - - -
27/07:00am 9.5 N 3 5 1020.3 - - - - - - - - -
27/06:30am 9.7 NNE 4 8 1020.1 - - - - - - - - -
27/06:00am 9.8 NNE 6 10 1020.0 - - - - - - - - -
27/05:30am 9.9 NNE 7 11 1019.7 - - - - - - - - -
27/05:00am 9.9 NNE 7 12 1019.9 - - - - - - - - -
27/04:30am 10.1 NNE 8 12 1019.9 - - - - - - - - -
27/04:00am 10.3 NNE 8 14 1020.0 - - - - - - - - -
27/03:30am 10.3 NE 7 11 1020.2 - - - - - - - - -
27/03:00am 10.3 NNE 7 12 1020.3 - - - - - - - - -
27/02:30am 10.4 NNE 7 11 1020.5 - - - - - - - - -
27/02:00am 10.7 NNE 6 9 1020.8 - - - - - - - - -
27/01:30am 10.9 NE 6 10 1020.9 - - - - - - - - -
27/01:00am 11.0 NNE 5 8 1021.0 - - - - - - - - -
27/12:30am 11.4 NNE 5 8 1021.2 - - - - - - - - -
27/12:00am 11.9 NNE 5 9 1021.5 - - - - - - - - -
 
Date/Time
WST
Temp
°C
Wind Pressure Rain since
9am
mm
Weather Cloud Vis
km
Sea
Height
m
Swell
Dir  Spd
kts
Gust
kts
hPa Trend Height
m
Period
s
Dir
26/11:30pm 11.9 NNE 4 6 1021.8 - - - - - - - - -
26/11:00pm 12.4 NNE 5 10 1022.1 - - - - - - - - -
26/10:30pm 12.8 NE 5 8 1022.3 - - - - - - - - -
26/10:00pm 13.6 NNE 4 8 1022.3 - - - - - - - - -
26/09:30pm 14.2 N 3 5 1022.5 - - - - - - - - -
26/09:00pm 14.6 NNE 4 6 1022.6 - - - - - - - - -
26/08:30pm 14.7 NNE 4 7 1022.6 - - - - - - - - -
26/08:00pm 15.0 NNE 4 6 1022.5 - - - - - - - - -
26/07:30pm 14.9 NNE 5 8 1022.5 - - - - - - - - -
26/07:00pm 14.9 NE 3 5 1022.5 - - - - - - - - -

Other Formats:

Comma delimited format used in spreadsheet applications
http://www.bom.gov.au/fwo/IDW60701/IDW60701.95605.axf

JavaScript Object Notation format (JSON) in row-major order
http://www.bom.gov.au/fwo/IDW60701/IDW60701.95605.json